Time;durP1;ratioP1;P1;durP2;ratioP2;P2;SDS_P1;SDS_P2;PMS_P1;PMS_P2;Temp;Humidity;BMP_temperature;BMP_pressure;BME280_temperature;BME280_humidity;BME280_pressure;Samples;Min_cycle;Max_cycle;Signal;HPM_P1;HPM_P2
2023/03/05 00:01:03;;;;;;;;;;;3.20;99.90;;;;;;5051367;28;1104;-66
2023/03/05 00:03:29;;;;;;;;;;;3.20;99.90;;;;;;5057873;28;1922;-66
2023/03/05 00:05:56;;;;;;;;;;;3.20;99.90;;;;;;5070108;28;1108;-66
2023/03/05 00:08:22;;;;;;;;;;;3.20;99.90;;;;;;5045298;28;1179;-66
2023/03/05 00:10:54;;;;;;;;;;;3.20;99.90;;;;;;5077778;28;1602;-66
2023/03/05 00:13:20;;;;;;;;;;;3.20;99.90;;;;;;5050757;28;1171;-66
2023/03/05 00:15:45;;;;;;;;;;;3.10;99.90;;;;;;5063262;28;1206;-67
2023/03/05 00:18:11;;;;;;;;;;;3.10;99.90;;;;;;5033129;28;1097;-66
2023/03/05 00:20:36;;;;;;;;;;;3.10;99.90;;;;;;5032487;28;1164;-66
2023/03/05 00:23:02;;;;;;;;;;;3.20;99.90;;;;;;5072004;28;1917;-66
2023/03/05 00:25:28;;;;;;;;;;;3.10;99.90;;;;;;5054436;28;1191;-67
2023/03/05 00:27:53;;;;;;;;;;;3.10;99.90;;;;;;5050350;28;1176;-66
2023/03/05 00:30:19;;;;;;;;;;;3.10;99.90;;;;;;5031836;28;986;-66
2023/03/05 00:32:45;;;;;;;;;;;3.00;99.90;;;;;;5053230;28;1153;-66
2023/03/05 00:35:12;;;;;;;;;;;2.90;99.90;;;;;;5054920;28;1147;-66
2023/03/05 00:37:37;;;;;;;;;;;3.00;99.90;;;;;;5049425;28;1069;-66
2023/03/05 00:40:03;;;;;;;;;;;3.10;99.90;;;;;;5033374;28;1315;-66
2023/03/05 00:42:29;;;;;;;;;;;3.10;99.90;;;;;;5043005;28;1906;-66
2023/03/05 00:44:55;;;;;;;;;;;3.20;99.90;;;;;;5049312;28;1101;-66
2023/03/05 00:47:21;;;;;;;;;;;3.20;99.90;;;;;;5050316;28;1136;-66
2023/03/05 00:49:47;;;;;;;;;;;3.20;99.90;;;;;;5032122;28;1184;-66
2023/03/05 00:52:12;;;;;;;;;;;3.20;99.90;;;;;;5057531;28;1091;-66
2023/03/05 00:54:38;;;;;;;;;;;3.20;99.90;;;;;;5049803;28;1132;-66
2023/03/05 00:57:04;;;;;;;;;;;3.20;99.90;;;;;;5048879;28;1021;-66
2023/03/05 00:59:30;;;;;;;;;;;3.10;99.90;;;;;;5017098;28;1686;-66
2023/03/05 01:01:55;;;;;;;;;;;3.00;99.90;;;;;;5049949;28;1960;-66
2023/03/05 01:04:21;;;;;;;;;;;3.00;99.90;;;;;;5033829;28;1156;-66
2023/03/05 01:06:47;;;;;;;;;;;3.00;99.90;;;;;;5068974;28;1100;-66
2023/03/05 01:09:13;;;;;;;;;;;3.10;99.90;;;;;;5063870;28;1312;-66
2023/03/05 01:11:39;;;;;;;;;;;3.10;99.90;;;;;;5051553;28;1088;-66
2023/03/05 01:14:04;;;;;;;;;;;3.10;99.90;;;;;;5049568;28;1151;-66
2023/03/05 01:16:30;;;;;;;;;;;3.10;99.90;;;;;;5051751;28;1112;-66
2023/03/05 01:18:56;;;;;;;;;;;3.10;99.90;;;;;;5053619;28;1193;-66
2023/03/05 01:21:22;;;;;;;;;;;3.10;99.90;;;;;;5040377;28;1285;-66
2023/03/05 01:23:47;;;;;;;;;;;3.00;99.90;;;;;;5050396;28;2000;-66
2023/03/05 01:26:13;;;;;;;;;;;2.90;99.90;;;;;;5054751;28;977;-66
2023/03/05 01:28:39;;;;;;;;;;;2.80;99.90;;;;;;5036273;28;1136;-66
2023/03/05 01:31:06;;;;;;;;;;;2.70;99.90;;;;;;5031708;28;1125;-66
2023/03/05 01:33:32;;;;;;;;;;;2.70;99.90;;;;;;5048592;28;1180;-66
2023/03/05 01:35:57;;;;;;;;;;;2.70;99.90;;;;;;5054585;28;1142;-66
2023/03/05 01:38:23;;;;;;;;;;;2.70;99.90;;;;;;5049394;28;1181;-66
2023/03/05 01:40:49;;;;;;;;;;;3.20;99.90;;;;;;5034462;28;1308;-66
2023/03/05 01:43:20;;;;;;;;;;;2.80;99.90;;;;;;5048271;28;1930;-66
2023/03/05 01:46:05;;;;;;;;;;;2.80;99.90;;;;;;5040794;28;1136;-66
2023/03/05 01:48:31;;;;;;;;;;;2.80;99.90;;;;;;5028013;28;1103;-66
2023/03/05 01:50:57;;;;;;;;;;;2.80;99.90;;;;;;5011420;28;1113;-66
2023/03/05 01:53:22;;;;;;;;;;;2.80;99.90;;;;;;5040255;28;1204;-66
2023/03/05 01:55:48;;;;;;;;;;;2.80;99.90;;;;;;5048315;28;1202;-66
2023/03/05 01:58:14;;;;;;;;;;;2.90;99.90;;;;;;5047176;28;1096;-66
2023/03/05 02:00:46;;;;;;;;;;;2.80;99.90;;;;;;5042254;28;1219;-66
2023/03/05 02:03:13;;;;;;;;;;;2.90;99.90;;;;;;5038652;28;1922;-66
2023/03/05 02:05:40;;;;;;;;;;;2.90;99.90;;;;;;5020455;28;1236;-66
2023/03/05 02:08:08;;;;;;;;;;;3.00;99.90;;;;;;5021334;28;1307;-66
2023/03/05 02:10:35;;;;;;;;;;;3.00;99.90;;;;;;5034719;28;1601;-66
2023/03/05 02:13:03;;;;;;;;;;;3.10;99.90;;;;;;5036176;28;1110;-66
2023/03/05 02:15:29;;;;;;;;;;;3.10;99.90;;;;;;5037026;28;1116;-66
2023/03/05 02:17:55;;;;;;;;;;;3.10;99.90;;;;;;5039045;28;1026;-66
2023/03/05 02:20:22;;;;;;;;;;;3.00;99.90;;;;;;5037940;28;1255;-66
2023/03/05 02:22:48;;;;;;;;;;;3.00;99.90;;;;;;5039956;28;1977;-66
2023/03/05 02:25:15;;;;;;;;;;;3.10;99.90;;;;;;5036955;28;1311;-66
2023/03/05 02:27:43;;;;;;;;;;;3.00;99.90;;;;;;5037755;28;1193;-66
2023/03/05 02:30:09;;;;;;;;;;;2.90;99.90;;;;;;5036239;28;1236;-66
2023/03/05 02:32:35;;;;;;;;;;;3.00;99.90;;;;;;5037479;28;1204;-66
2023/03/05 02:35:01;;;;;;;;;;;2.90;99.90;;;;;;5036597;28;1240;-66
2023/03/05 02:37:27;;;;;;;;;;;3.00;99.90;;;;;;5036952;28;1224;-66
2023/03/05 02:39:52;;;;;;;;;;;3.00;99.90;;;;;;5049823;28;1324;-66
2023/03/05 02:42:18;;;;;;;;;;;3.10;99.90;;;;;;5041437;28;1906;-66
2023/03/05 02:44:44;;;;;;;;;;;3.10;99.90;;;;;;5023789;28;1256;-67
2023/03/05 02:47:10;;;;;;;;;;;3.10;99.90;;;;;;5037120;28;1037;-66
2023/03/05 02:49:36;;;;;;;;;;;3.10;99.90;;;;;;5038414;28;1282;-66
2023/03/05 02:52:02;;;;;;;;;;;3.00;99.90;;;;;;5023686;28;1231;-66
2023/03/05 02:54:28;;;;;;;;;;;2.90;99.90;;;;;;5039315;28;1271;-66
2023/03/05 02:56:54;;;;;;;;;;;2.80;99.90;;;;;;5057196;28;1207;-66
2023/03/05 02:59:21;;;;;;;;;;;2.70;99.90;;;;;;5022839;28;1108;-66
2023/03/05 03:01:46;;;;;;;;;;;2.60;99.90;;;;;;5026865;28;2002;-66
2023/03/05 03:04:12;;;;;;;;;;;2.50;99.90;;;;;;5044111;28;1967;-66
2023/03/05 03:06:38;;;;;;;;;;;2.50;99.90;;;;;;5061002;28;1247;-66
2023/03/05 03:09:03;;;;;;;;;;;2.40;99.90;;;;;;5063001;28;1300;-66
2023/03/05 03:11:29;;;;;;;;;;;2.50;99.90;;;;;;5063241;28;1180;-66
2023/03/05 03:13:55;;;;;;;;;;;2.40;99.90;;;;;;5067492;28;1218;-66
2023/03/05 03:16:20;;;;;;;;;;;2.90;99.90;;;;;;5071863;28;1104;-66
2023/03/05 03:18:47;;;;;;;;;;;2.70;99.90;;;;;;5070188;28;1128;-66
2023/03/05 03:21:20;;;;;;;;;;;2.70;99.90;;;;;;5062220;28;1319;-66
2023/03/05 03:23:46;;;;;;;;;;;2.70;99.90;;;;;;5061681;28;1969;-66
2023/03/05 03:26:12;;;;;;;;;;;2.70;99.90;;;;;;5050889;28;1128;-66
2023/03/05 03:28:38;;;;;;;;;;;2.70;99.90;;;;;;5051426;28;1132;-66
2023/03/05 03:31:04;;;;;;;;;;;2.70;99.90;;;;;;5066159;28;1231;-66
2023/03/05 03:33:30;;;;;;;;;;;2.70;99.90;;;;;;5070592;28;1155;-66
2023/03/05 03:35:56;;;;;;;;;;;2.70;99.90;;;;;;5071537;28;1174;-66
2023/03/05 03:38:21;;;;;;;;;;;2.70;99.90;;;;;;5069932;28;1187;-66
2023/03/05 03:40:47;;;;;;;;;;;2.60;99.90;;;;;;5036120;28;1288;-66
2023/03/05 03:43:13;;;;;;;;;;;2.50;99.90;;;;;;5051413;28;1910;-66
2023/03/05 03:45:40;;;;;;;;;;;2.40;99.90;;;;;;5049956;28;1112;-66
2023/03/05 03:48:05;;;;;;;;;;;2.30;99.90;;;;;;5048806;28;1124;-66
2023/03/05 03:50:31;;;;;;;;;;;2.30;99.90;;;;;;5031280;28;1125;-66
2023/03/05 03:52:57;;;;;;;;;;;2.20;99.90;;;;;;5031175;28;1202;-66
2023/03/05 03:55:22;;;;;;;;;;;2.20;99.90;;;;;;5029304;28;1113;-66
2023/03/05 03:57:48;;;;;;;;;;;2.20;99.90;;;;;;5033756;28;1170;-66
2023/03/05 04:00:14;;;;;;;;;;;2.10;99.90;;;;;;5031345;28;1199;-66
2023/03/05 04:02:40;;;;;;;;;;;2.10;99.90;;;;;;5030137;28;1975;-66
2023/03/05 04:05:06;;;;;;;;;;;2.10;99.90;;;;;;5034889;28;1117;-66
2023/03/05 04:07:32;;;;;;;;;;;2.10;99.90;;;;;;5037119;28;1183;-65
2023/03/05 04:09:57;;;;;;;;;;;2.20;99.90;;;;;;5037360;28;1593;-66
2023/03/05 04:12:23;;;;;;;;;;;2.20;99.90;;;;;;5043595;28;1119;-66
2023/03/05 04:14:49;;;;;;;;;;;2.30;99.90;;;;;;5041399;28;1115;-66
2023/03/05 04:17:15;;;;;;;;;;;2.30;99.90;;;;;;5048647;28;1084;-66
2023/03/05 04:19:41;;;;;;;;;;;2.30;99.90;;;;;;5042963;28;967;-66
2023/03/05 04:22:11;;;;;;;;;;;2.30;99.90;;;;;;5048095;28;1938;-66
2023/03/05 04:24:37;;;;;;;;;;;2.30;99.90;;;;;;5038399;28;1111;-66
2023/03/05 04:27:03;;;;;;;;;;;2.40;99.90;;;;;;5038341;28;1271;-66
2023/03/05 04:29:29;;;;;;;;;;;2.40;99.90;;;;;;5038040;28;1204;-66
2023/03/05 04:31:54;;;;;;;;;;;2.50;99.90;;;;;;5040700;28;1298;-66
2023/03/05 04:34:20;;;;;;;;;;;2.50;99.90;;;;;;5039681;28;1307;-66
2023/03/05 04:36:46;;;;;;;;;;;2.50;99.90;;;;;;5039533;28;1401;-66
2023/03/05 04:39:12;;;;;;;;;;;2.60;99.90;;;;;;5045934;28;1243;-66
2023/03/05 04:41:37;;;;;;;;;;;2.70;99.90;;;;;;5059808;28;1418;-66
2023/03/05 04:44:03;;;;;;;;;;;2.70;99.90;;;;;;5058589;28;1975;-66
2023/03/05 04:46:29;;;;;;;;;;;2.70;99.90;;;;;;5058328;28;1207;-66
2023/03/05 04:48:56;;;;;;;;;;;2.60;99.90;;;;;;5059171;28;1228;-66
2023/03/05 04:51:21;;;;;;;;;;;2.60;99.90;;;;;;5059233;28;1238;-66
2023/03/05 04:53:47;;;;;;;;;;;2.60;99.90;;;;;;5042160;28;1191;-66
2023/03/05 04:56:13;;;;;;;;;;;2.60;99.90;;;;;;5058766;28;1195;-66
2023/03/05 04:58:39;;;;;;;;;;;2.60;99.90;;;;;;5058794;28;1291;-66
2023/03/05 05:01:05;;;;;;;;;;;2.60;99.90;;;;;;5058437;28;1250;-66
2023/03/05 05:03:31;;;;;;;;;;;2.70;99.90;;;;;;5060392;28;1910;-66
2023/03/05 05:05:58;;;;;;;;;;;2.70;99.90;;;;;;5058542;28;1242;-66
2023/03/05 05:08:24;;;;;;;;;;;2.70;99.90;;;;;;5058809;28;1232;-66
2023/03/05 05:10:59;;;;;;;;;;;2.70;99.90;;;;;;5063438;28;1601;-66
2023/03/05 05:13:25;;;;;;;;;;;2.80;99.90;;;;;;5053934;28;1086;-66
2023/03/05 05:15:51;;;;;;;;;;;2.80;99.90;;;;;;5066317;28;1396;-66
2023/03/05 05:18:17;;;;;;;;;;;2.90;99.90;;;;;;5058646;28;996;-66
2023/03/05 05:20:42;;;;;;;;;;;2.80;99.90;;;;;;5049595;28;1081;-66
2023/03/05 05:23:08;;;;;;;;;;;2.80;99.90;;;;;;5068380;28;1971;-66
2023/03/05 05:25:34;;;;;;;;;;;2.80;99.90;;;;;;5055683;28;1062;-66
2023/03/05 05:27:59;;;;;;;;;;;2.80;99.90;;;;;;5049659;28;1037;-66
2023/03/05 05:30:25;;;;;;;;;;;2.70;99.90;;;;;;5031452;28;1105;-66
2023/03/05 05:32:51;;;;;;;;;;;2.70;99.90;;;;;;5047036;28;1112;-66
2023/03/05 05:35:17;;;;;;;;;;;2.70;99.90;;;;;;5067199;28;1201;-66
2023/03/05 05:37:42;;;;;;;;;;;2.70;99.90;;;;;;5065043;28;1016;-66
2023/03/05 05:40:08;;;;;;;;;;;2.60;99.90;;;;;;5058904;28;1340;-66
2023/03/05 05:42:34;;;;;;;;;;;2.60;99.90;;;;;;5059810;28;1917;-66
2023/03/05 05:45:01;;;;;;;;;;;2.60;99.90;;;;;;5058630;28;1282;-66
2023/03/05 05:47:28;;;;;;;;;;;2.60;99.90;;;;;;5057475;28;1219;-66
2023/03/05 05:49:54;;;;;;;;;;;2.60;99.90;;;;;;5039822;28;1247;-66
2023/03/05 05:52:20;;;;;;;;;;;2.70;99.90;;;;;;5057739;28;1251;-66
2023/03/05 05:54:46;;;;;;;;;;;2.60;99.90;;;;;;5058686;28;1231;-66
2023/03/05 05:57:11;;;;;;;;;;;2.50;99.90;;;;;;5059172;28;1127;-65
2023/03/05 05:59:37;;;;;;;;;;;2.50;99.90;;;;;;5056359;28;1148;-66
2023/03/05 06:02:04;;;;;;;;;;;2.40;99.90;;;;;;5057229;28;2024;-66
2023/03/05 06:04:29;;;;;;;;;;;2.30;99.90;;;;;;5059855;28;1184;-66
2023/03/05 06:06:55;;;;;;;;;;;2.20;99.90;;;;;;5059233;28;1259;-66
2023/03/05 06:09:21;;;;;;;;;;;2.10;99.90;;;;;;5022320;28;1293;-66
2023/03/05 06:11:46;;;;;;;;;;;2.00;99.90;;;;;;5061058;28;1007;-66
2023/03/05 06:14:12;;;;;;;;;;;2.10;99.90;;;;;;5038002;28;1270;-66
2023/03/05 06:16:38;;;;;;;;;;;2.00;99.90;;;;;;5060311;28;1271;-66
2023/03/05 06:19:04;;;;;;;;;;;2.00;99.90;;;;;;5039864;28;1228;-66
2023/03/05 06:21:30;;;;;;;;;;;2.00;99.90;;;;;;5059108;28;1270;-66
2023/03/05 06:23:57;;;;;;;;;;;2.00;99.90;;;;;;5058769;28;1906;-66
2023/03/05 06:26:23;;;;;;;;;;;3.20;99.90;;;;;;5058583;28;1235;-66
2023/03/05 06:28:49;;;;;;;;;;;2.00;99.90;;;;;;5059105;28;1195;-66
2023/03/05 06:31:16;;;;;;;;;;;1.90;99.90;;;;;;5058322;28;1247;-66
2023/03/05 06:33:42;;;;;;;;;;;2.00;99.90;;;;;;5058299;28;1270;-66
2023/03/05 06:36:09;;;;;;;;;;;2.10;99.90;;;;;;5060695;28;1255;-66
2023/03/05 06:38:35;;;;;;;;;;;2.10;99.90;;;;;;5064450;28;1310;-65
2023/03/05 06:41:04;;;;;;;;;;;2.20;99.90;;;;;;5062443;28;1232;-66
2023/03/05 06:43:32;;;;;;;;;;;2.30;99.90;;;;;;5061925;28;1918;-66
2023/03/05 06:46:06;;;;;;;;;;;2.40;99.90;;;;;;5060620;28;1296;-66
2023/03/05 06:48:31;;;;;;;;;;;2.50;99.90;;;;;;5060296;28;1254;-66
2023/03/05 06:50:57;;;;;;;;;;;2.50;99.90;;;;;;5060066;28;1318;-66
2023/03/05 06:53:23;;;;;;;;;;;2.60;99.90;;;;;;5062516;28;1084;-66
2023/03/05 06:55:49;;;;;;;;;;;2.60;99.90;;;;;;5061719;28;1282;-66
2023/03/05 06:58:15;;;;;;;;;;;2.70;99.90;;;;;;5058817;28;1215;-66
2023/03/05 07:00:42;;;;;;;;;;;2.70;99.90;;;;;;5061721;28;1255;-66
2023/03/05 07:03:08;;;;;;;;;;;2.70;99.90;;;;;;5063004;28;1917;-66
2023/03/05 07:05:36;;;;;;;;;;;2.80;99.90;;;;;;5059946;28;1271;-66
2023/03/05 07:08:03;;;;;;;;;;;2.80;99.90;;;;;;5062535;28;1175;-66
2023/03/05 07:10:28;;;;;;;;;;;2.80;99.90;;;;;;5063496;28;1323;-66
2023/03/05 07:12:54;;;;;;;;;;;2.70;99.90;;;;;;5054845;28;1231;-66
2023/03/05 07:15:20;;;;;;;;;;;2.70;99.90;;;;;;5071045;28;1192;-66
2023/03/05 07:17:45;;;;;;;;;;;2.70;99.90;;;;;;5070834;28;1180;-66
2023/03/05 07:20:11;;;;;;;;;;;2.80;99.90;;;;;;5070909;28;1112;-66
2023/03/05 07:22:37;;;;;;;;;;;2.80;99.90;;;;;;5072024;28;1914;-66
2023/03/05 07:25:03;;;;;;;;;;;2.80;99.90;;;;;;5051197;28;1148;-66
2023/03/05 07:27:29;;;;;;;;;;;2.90;99.90;;;;;;5051638;28;1124;-66
2023/03/05 07:29:55;;;;;;;;;;;3.00;99.90;;;;;;5054269;28;1134;-66
2023/03/05 07:32:21;;;;;;;;;;;3.00;99.90;;;;;;5033283;28;1067;-66
2023/03/05 07:34:46;;;;;;;;;;;3.10;99.90;;;;;;5051413;28;1189;-66
2023/03/05 07:37:12;;;;;;;;;;;3.10;99.90;;;;;;5053472;28;1093;-66
2023/03/05 07:39:38;;;;;;;;;;;3.20;99.90;;;;;;5058787;28;1341;-66
2023/03/05 07:42:04;;;;;;;;;;;3.30;99.90;;;;;;5061106;28;1964;-66
2023/03/05 07:44:46;;;;;;;;;;;3.30;99.90;;;;;;5042768;28;1279;-66
2023/03/05 07:47:12;;;;;;;;;;;3.40;99.90;;;;;;5055741;28;1224;-66
2023/03/05 07:49:40;;;;;;;;;;;3.50;99.90;;;;;;5051211;28;1168;-66
2023/03/05 07:52:06;;;;;;;;;;;3.60;99.90;;;;;;5050982;28;1180;-66
2023/03/05 07:54:36;;;;;;;;;;;3.70;99.90;;;;;;5054143;28;1168;-66
2023/03/05 07:57:02;;;;;;;;;;;3.80;99.90;;;;;;5056718;28;1183;-66
2023/03/05 07:59:29;;;;;;;;;;;3.90;99.90;;;;;;5050800;28;1187;-66
2023/03/05 08:01:54;;;;;;;;;;;4.00;99.90;;;;;;5032350;28;1109;-66
2023/03/05 08:04:20;;;;;;;;;;;4.10;99.90;;;;;;5038800;28;1973;-66
2023/03/05 08:06:46;;;;;;;;;;;4.20;99.90;;;;;;5050970;28;1168;-66
2023/03/05 08:09:12;;;;;;;;;;;4.20;99.90;;;;;;5033019;28;1376;-66
2023/03/05 08:11:39;;;;;;;;;;;4.30;99.90;;;;;;5061488;28;1188;-66
2023/03/05 08:14:04;;;;;;;;;;;4.40;99.90;;;;;;5058670;28;1279;-66
2023/03/05 08:16:30;;;;;;;;;;;4.40;99.90;;;;;;5053038;28;1306;-66
2023/03/05 08:18:56;;;;;;;;;;;4.40;99.90;;;;;;5050882;28;1104;-66
2023/03/05 08:21:25;;;;;;;;;;;4.50;99.90;;;;;;5057067;28;1405;-66
2023/03/05 08:23:51;;;;;;;;;;;4.60;99.90;;;;;;5070327;28;1901;-66
2023/03/05 08:26:19;;;;;;;;;;;4.70;99.90;;;;;;5070566;28;1089;-66
2023/03/05 08:28:45;;;;;;;;;;;4.70;99.90;;;;;;5069477;28;1088;-66
2023/03/05 08:31:11;;;;;;;;;;;4.80;99.90;;;;;;5064487;28;1118;-66
2023/03/05 08:33:37;;;;;;;;;;;4.80;99.90;;;;;;5052402;28;1152;-66
2023/03/05 08:36:03;;;;;;;;;;;4.80;99.90;;;;;;5069793;28;1212;-66
2023/03/05 08:38:29;;;;;;;;;;;4.80;99.90;;;;;;5069810;28;1096;-66
2023/03/05 08:40:55;;;;;;;;;;;4.80;99.90;;;;;;5067971;28;1356;-66
2023/03/05 08:43:20;;;;;;;;;;;4.90;99.90;;;;;;5049800;28;2017;-66
2023/03/05 08:45:48;;;;;;;;;;;5.00;99.90;;;;;;5049767;28;1156;-66
2023/03/05 08:48:14;;;;;;;;;;;5.10;99.90;;;;;;5051721;28;1159;-66
2023/03/05 08:50:40;;;;;;;;;;;5.10;99.90;;;;;;5049508;28;1066;-66
2023/03/05 08:53:05;;;;;;;;;;;5.20;99.90;;;;;;5050036;28;1105;-67
2023/03/05 08:55:31;;;;;;;;;;;5.20;99.90;;;;;;5050069;28;1192;-66
2023/03/05 08:57:57;;;;;;;;;;;5.20;99.90;;;;;;5060800;28;1195;-66
2023/03/05 09:00:23;;;;;;;;;;;5.40;99.90;;;;;;5069520;28;1171;-66
2023/03/05 09:02:48;;;;;;;;;;;5.50;99.90;;;;;;5063910;28;1964;-66
2023/03/05 09:05:14;;;;;;;;;;;5.50;99.90;;;;;;5058913;28;1250;-66
2023/03/05 09:07:40;;;;;;;;;;;5.50;99.90;;;;;;5054182;28;1216;-66
2023/03/05 09:10:06;;;;;;;;;;;5.60;99.90;;;;;;5060199;28;1553;-67
2023/03/05 09:12:32;;;;;;;;;;;5.70;99.90;;;;;;5034862;28;1235;-67
2023/03/05 09:14:58;;;;;;;;;;;5.70;99.90;;;;;;5052174;28;3782;-67
2023/03/05 09:17:23;;;;;;;;;;;5.90;99.90;;;;;;5049039;28;3909;-66
2023/03/05 09:19:49;;;;;;;;;;;5.90;99.90;;;;;;5050571;28;1081;-67
2023/03/05 09:22:15;;;;;;;;;;;5.90;99.90;;;;;;5059207;28;3504;-66
2023/03/05 09:24:42;;;;;;;;;;;5.90;99.90;;;;;;5060519;28;1208;-66
2023/03/05 09:27:07;;;;;;;;;;;6.00;99.90;;;;;;5049256;28;1109;-66
2023/03/05 09:29:33;;;;;;;;;;;6.00;99.90;;;;;;5048938;28;1269;-66
2023/03/05 09:31:59;;;;;;;;;;;6.10;99.90;;;;;;5056624;28;1172;-67
2023/03/05 09:34:24;;;;;;;;;;;6.10;99.90;;;;;;5061922;28;3580;-66
2023/03/05 09:36:50;;;;;;;;;;;6.10;99.90;;;;;;5040494;28;1279;-66
2023/03/05 09:39:16;;;;;;;;;;;6.00;99.90;;;;;;5058501;28;1230;-66
2023/03/05 09:42:00;;;;;;;;;;;5.60;99.90;;;;;;5058846;28;1319;-66
2023/03/05 09:44:44;;;;;;;;;;;5.30;99.90;;;;;;5059841;28;1973;-66
2023/03/05 09:47:25;;;;;;;;;;;5.00;99.90;;;;;;5055274;28;1280;-66
2023/03/05 09:49:58;;;;;;;;;;;4.90;99.90;;;;;;5052953;28;1077;-66
2023/03/05 09:52:33;;;;;;;;;;;4.90;99.90;;;;;;5058184;28;1159;-66
2023/03/05 09:54:59;;;;;;;;;;;5.10;99.90;;;;;;5049280;28;1176;-66
2023/03/05 09:57:47;;;;;;;;;;;5.30;99.90;;;;;;5045264;28;1132;-66
2023/03/05 10:00:22;;;;;;;;;;;5.50;99.90;;;;;;5057868;28;993;-66
2023/03/05 10:02:52;;;;;;;;;;;5.60;99.90;;;;;;5048996;28;1959;-66
2023/03/05 10:05:18;;;;;;;;;;;5.90;99.90;;;;;;5048903;28;1116;-66
2023/03/05 10:07:50;;;;;;;;;;;6.10;99.90;;;;;;5052327;28;1128;-67
2023/03/05 10:10:21;;;;;;;;;;;6.30;99.90;;;;;;5063040;28;1671;-67
2023/03/05 10:12:49;;;;;;;;;;;6.40;99.90;;;;;;5071183;28;965;-67
2023/03/05 10:15:16;;;;;;;;;;;6.60;99.90;;;;;;5074762;28;1179;-66
2023/03/05 10:17:56;;;;;;;;;;;6.60;99.90;;;;;;5069891;28;1168;-67
2023/03/05 10:20:22;;;;;;;;;;;6.60;99.90;;;;;;5062081;28;1255;-67
2023/03/05 10:22:54;;;;;;;;;;;6.90;99.90;;;;;;5073620;28;1913;-66
2023/03/05 10:25:30;;;;;;;;;;;7.00;99.90;;;;;;5063957;28;1219;-67
2023/03/05 10:27:58;;;;;;;;;;;6.80;99.90;;;;;;5063928;28;1247;-66
2023/03/05 10:30:31;;;;;;;;;;;6.70;99.90;;;;;;5055511;28;1144;-67
2023/03/05 10:33:06;;;;;;;;;;;6.60;99.90;;;;;;5055564;28;1152;-66
2023/03/05 10:35:50;;;;;;;;;;;6.70;99.90;;;;;;5062357;28;1101;-66
2023/03/05 10:38:32;;;;;;;;;;;7.10;99.90;;;;;;5055077;28;1194;-67
2023/03/05 10:41:19;;;;;;;;;;;7.70;99.90;;;;;;5063702;28;1363;-67
2023/03/05 10:43:56;;;;;;;;;;;8.20;99.90;;;;;;5067518;28;1906;-67
2023/03/05 10:46:27;;;;;;;;;;;8.30;99.90;;;;;;5055200;28;1041;-67
2023/03/05 10:48:57;;;;;;;;;;;8.00;99.90;;;;;;5054871;28;1128;-67
2023/03/05 10:51:23;;;;;;;;;;;7.60;99.90;;;;;;5055117;28;1121;-67
2023/03/05 10:53:57;;;;;;;;;;;7.30;99.90;;;;;;5064653;28;1099;-67
2023/03/05 10:56:25;;;;;;;;;;;7.00;99.90;;;;;;5054691;28;1165;-70
2023/03/05 10:58:52;;;;;;;;;;;6.90;99.90;;;;;;5055109;28;1136;-67
2023/03/05 11:01:20;;;;;;;;;;;6.90;99.90;;;;;;5062104;28;1081;-67
2023/03/05 11:03:46;;;;;;;;;;;7.00;99.90;;;;;;5074306;28;1972;-67
2023/03/05 11:06:12;;;;;;;;;;;6.90;99.90;;;;;;5069675;28;3517;-67
2023/03/05 11:08:38;;;;;;;;;;;7.20;99.90;;;;;;5074195;28;3597;-67
2023/03/05 11:11:04;;;;;;;;;;;7.70;99.90;;;;;;5063011;28;1125;-67
2023/03/05 11:13:31;;;;;;;;;;;8.00;99.90;;;;;;5064041;28;3795;-67
2023/03/05 11:15:59;;;;;;;;;;;8.40;99.90;;;;;;5067513;28;1511;-66
2023/03/05 11:18:25;;;;;;;;;;;8.90;99.90;;;;;;5056480;28;1093;-67
2023/03/05 11:20:51;;;;;;;;;;;8.70;99.90;;;;;;5054037;28;1255;-67
2023/03/05 11:23:20;;;;;;;;;;;8.30;99.90;;;;;;5069126;28;1914;-66
2023/03/05 11:25:48;;;;;;;;;;;8.50;99.90;;;;;;5045456;28;3456;-67
2023/03/05 11:28:19;;;;;;;;;;;8.70;99.90;;;;;;5051173;28;1096;-67
2023/03/05 11:30:54;;;;;;;;;;;8.90;99.90;;;;;;5055267;28;1050;-67
2023/03/05 11:33:21;;;;;;;;;;;8.90;99.90;;;;;;5033108;28;1097;-67
2023/03/05 11:35:48;;;;;;;;;;;8.60;99.90;;;;;;5051247;28;1113;-67
2023/03/05 11:38:16;;;;;;;;;;;8.20;99.90;;;;;;5058042;28;3638;-67
2023/03/05 11:40:41;;;;;;;;;;;7.70;99.90;;;;;;5046157;28;3952;-66
2023/03/05 11:43:11;;;;;;;;;;;7.50;99.90;;;;;;5059186;28;3334;-66
2023/03/05 11:45:38;;;;;;;;;;;7.70;99.90;;;;;;5057882;28;1339;-67
2023/03/05 11:48:08;;;;;;;;;;;7.80;99.90;;;;;;5055448;28;1284;-67
2023/03/05 11:50:34;;;;;;;;;;;7.70;99.90;;;;;;5055173;28;1101;-67
2023/03/05 11:53:01;;;;;;;;;;;7.80;99.90;;;;;;5070393;28;1116;-66
2023/03/05 11:55:31;;;;;;;;;;;8.20;99.90;;;;;;5061588;28;1166;-66
2023/03/05 11:58:03;;;;;;;;;;;7.50;99.90;;;;;;5051174;28;1152;-66
2023/03/05 12:00:29;;;;;;;;;;;7.30;99.90;;;;;;5053490;28;1048;-66
2023/03/05 12:02:57;;;;;;;;;;;7.60;99.90;;;;;;5060910;28;1906;-67
2023/03/05 12:05:23;;;;;;;;;;;7.60;99.90;;;;;;5060582;28;1298;-66
2023/03/05 12:07:51;;;;;;;;;;;7.40;99.90;;;;;;5061609;28;1266;-67
2023/03/05 12:10:18;;;;;;;;;;;7.20;99.90;;;;;;5059415;28;1291;-66
2023/03/05 12:12:51;;;;;;;;;;;7.00;99.90;;;;;;5058094;28;1203;-67
2023/03/05 12:15:17;;;;;;;;;;;6.70;99.90;;;;;;5042970;28;1252;-67
2023/03/05 12:18:06;;;;;;;;;;;7.40;99.90;;;;;;5061713;28;1144;-67
2023/03/05 12:20:36;;;;;;;;;;;8.70;99.90;;;;;;5057671;28;1239;-67
2023/03/05 12:23:02;;;;;;;;;;;9.80;99.90;;;;;;5066352;28;1910;-67
2023/03/05 12:25:32;;;;;;;;;;;9.80;99.90;;;;;;5059212;28;1263;-67
2023/03/05 12:27:58;;;;;;;;;;;10.20;99.70;;;;;;5041184;28;1283;-67
2023/03/05 12:30:47;;;;;;;;;;;9.80;98.30;;;;;;5043634;28;1259;-67
2023/03/05 12:33:28;;;;;;;;;;;8.80;99.70;;;;;;5056123;28;1504;-67
2023/03/05 12:36:13;;;;;;;;;;;8.00;99.90;;;;;;5055301;28;1193;-67
2023/03/05 12:38:39;;;;;;;;;;;7.60;99.90;;;;;;5061779;28;1466;-66
2023/03/05 12:41:33;;;;;;;;;;;7.30;99.90;;;;;;5061558;28;1100;-67
2023/03/05 12:44:05;;;;;;;;;;;7.40;99.90;;;;;;5041289;28;1977;-67
2023/03/05 12:46:31;;;;;;;;;;;7.80;99.90;;;;;;5059186;28;1235;-67
2023/03/05 12:48:58;;;;;;;;;;;8.10;99.90;;;;;;5039468;28;1241;-67
2023/03/05 12:51:29;;;;;;;;;;;7.80;99.90;;;;;;5058124;28;1306;-67
2023/03/05 12:53:55;;;;;;;;;;;7.40;99.90;;;;;;5060892;28;1215;-67
2023/03/05 12:56:25;;;;;;;;;;;7.10;99.90;;;;;;5056909;28;1267;-67
2023/03/05 12:58:52;;;;;;;;;;;7.20;99.90;;;;;;5060777;28;1235;-67
2023/03/05 13:01:30;;;;;;;;;;;7.90;99.90;;;;;;5057396;28;1235;-67
2023/03/05 13:03:59;;;;;;;;;;;8.70;99.90;;;;;;5060992;28;1910;-66
2023/03/05 13:06:26;;;;;;;;;;;9.20;99.90;;;;;;5066111;28;1183;-67
2023/03/05 13:08:59;;;;;;;;;;;8.70;99.90;;;;;;5059020;28;1362;-67
2023/03/05 13:11:26;;;;;;;;;;;8.10;99.90;;;;;;5057292;28;1236;-67
2023/03/05 13:13:52;;;;;;;;;;;7.50;99.90;;;;;;5057259;28;1200;-67
2023/03/05 13:16:19;;;;;;;;;;;7.30;99.90;;;;;;5069477;28;1096;-67
2023/03/05 13:18:46;;;;;;;;;;;7.60;99.90;;;;;;5068061;28;1140;-67
2023/03/05 13:21:13;;;;;;;;;;;8.30;99.90;;;;;;5073174;28;1293;-67
2023/03/05 13:23:45;;;;;;;;;;;8.30;99.90;;;;;;5073604;28;1970;-67
2023/03/05 13:26:14;;;;;;;;;;;8.30;99.90;;;;;;5069215;28;1100;-67
2023/03/05 13:28:41;;;;;;;;;;;8.70;99.90;;;;;;5069309;28;1080;-67
2023/03/05 13:31:12;;;;;;;;;;;8.50;99.90;;;;;;5067637;28;1111;-67
2023/03/05 13:33:38;;;;;;;;;;;7.90;99.90;;;;;;5069155;28;1089;-67
2023/03/05 13:36:04;;;;;;;;;;;7.50;99.90;;;;;;5067504;28;1314;-67
2023/03/05 13:38:39;;;;;;;;;;;7.80;99.90;;;;;;5051933;28;1179;-67
2023/03/05 13:41:10;;;;;;;;;;;8.00;99.90;;;;;;5059543;28;1347;-67
2023/03/05 13:43:43;;;;;;;;;;;7.90;99.90;;;;;;5068415;28;2003;-67
2023/03/05 13:46:09;;;;;;;;;;;8.10;99.90;;;;;;5050416;28;1152;-67
2023/03/05 13:48:35;;;;;;;;;;;8.40;99.90;;;;;;5063643;28;3358;-67
2023/03/05 13:51:05;;;;;;;;;;;8.40;99.90;;;;;;5056802;28;1119;-67
2023/03/05 13:53:32;;;;;;;;;;;8.70;99.90;;;;;;5048284;28;1172;-67
2023/03/05 13:55:59;;;;;;;;;;;8.60;99.90;;;;;;5030910;28;1192;-67
2023/03/05 13:58:43;;;;;;;;;;;8.40;99.90;;;;;;5051689;28;1184;-67
2023/03/05 14:01:12;;;;;;;;;;;8.30;99.90;;;;;;5049035;28;1101;-67
2023/03/05 14:03:38;;;;;;;;;;;8.00;99.90;;;;;;5052719;28;1922;-67
2023/03/05 14:06:09;;;;;;;;;;;7.70;99.90;;;;;;5053029;28;1073;-67
2023/03/05 14:08:34;;;;;;;;;;;7.40;99.90;;;;;;5058560;28;1273;-67
2023/03/05 14:11:10;;;;;;;;;;;7.30;99.90;;;;;;5068651;28;1068;-67
2023/03/05 14:13:36;;;;;;;;;;;7.30;99.90;;;;;;5068133;28;1120;-66
2023/03/05 14:16:03;;;;;;;;;;;7.60;99.90;;;;;;5063418;28;1155;-67
2023/03/05 14:18:29;;;;;;;;;;;7.70;99.90;;;;;;5048435;28;1092;-67
2023/03/05 14:20:58;;;;;;;;;;;7.50;99.90;;;;;;5061198;28;1269;-67
2023/03/05 14:23:35;;;;;;;;;;;7.20;99.90;;;;;;5064912;28;1975;-67
2023/03/05 14:26:19;;;;;;;;;;;7.00;99.90;;;;;;5054625;28;3690;-67
2023/03/05 14:28:54;;;;;;;;;;;6.90;99.90;;;;;;5050782;28;3843;-67
2023/03/05 14:31:21;;;;;;;;;;;7.00;99.90;;;;;;5055203;28;3487;-67
2023/03/05 14:33:47;;;;;;;;;;;7.30;99.90;;;;;;5051123;28;1152;-67
2023/03/05 14:36:13;;;;;;;;;;;7.80;99.90;;;;;;5058965;28;1120;-67
2023/03/05 14:38:40;;;;;;;;;;;8.40;99.90;;;;;;5068214;28;1167;-66
2023/03/05 14:41:21;;;;;;;;;;;8.40;99.90;;;;;;5064858;28;1335;-67
2023/03/05 14:43:47;;;;;;;;;;;8.10;99.90;;;;;;5055940;28;3208;-67
2023/03/05 14:46:12;;;;;;;;;;;8.00;99.90;;;;;;5032812;28;1105;-67